Time;durP1;ratioP1;P1;durP2;ratioP2;P2;SDS_P1;SDS_P2;PMS_P1;PMS_P2;Temp;Humidity;BMP_temperature;BMP_pressure;BME280_temperature;BME280_humidity;BME280_pressure;Samples;Min_cycle;Max_cycle;Signal;HPM_P1;HPM_P2
2023/03/10 00:01:23;;;;;;;7.47;5.32;;;;;;;;;;5005853;28;20388;-66
2023/03/10 00:03:51;;;;;;;10.27;4.75;;;;;;;;;;5010162;28;20018;-67
2023/03/10 00:06:19;;;;;;;15.38;5.35;;;;;;;;;;5012506;28;20030;-68
2023/03/10 00:08:46;;;;;;;8.77;4.43;;;;;;;;;;5013003;28;20022;-67
2023/03/10 00:11:12;;;;;;;7.97;4.90;;;;;;;;;;5012274;28;20029;-68
2023/03/10 00:13:39;;;;;;;5.97;4.20;;;;;;;;;;5012781;28;20052;-68
2023/03/10 00:16:06;;;;;;;14.32;5.30;;;;;;;;;;5009776;28;20052;-66
2023/03/10 00:18:33;;;;;;;8.30;4.57;;;;;;;;;;5007352;28;20065;-67
2023/03/10 00:21:00;;;;;;;19.05;4.95;;;;;;;;;;5007219;28;20064;-67
2023/03/10 00:23:26;;;;;;;5.90;4.88;;;;;;;;;;5006069;28;20084;-67
2023/03/10 00:25:54;;;;;;;9.80;6.03;;;;;;;;;;5009650;28;20053;-66
2023/03/10 00:28:21;;;;;;;10.32;5.50;;;;;;;;;;5012408;28;20033;-67
2023/03/10 00:31:04;;;;;;;9.48;4.68;;;;;;;;;;5012577;28;20519;-67
2023/03/10 00:33:32;;;;;;;10.73;4.80;;;;;;;;;;5012680;28;20040;-68
2023/03/10 00:36:09;;;;;;;7.82;5.78;;;;;;;;;;5012316;28;20054;-66
2023/03/10 00:38:36;;;;;;;7.65;5.03;;;;;;;;;;5009628;28;20041;-66
2023/03/10 00:41:07;;;;;;;18.40;5.00;;;;;;;;;;5007374;28;20034;-68
2023/03/10 00:43:34;;;;;;;8.30;5.10;;;;;;;;;;5007504;28;20030;-66
2023/03/10 00:46:01;;;;;;;8.48;5.78;;;;;;;;;;5007504;28;20022;-66
2023/03/10 00:48:28;;;;;;;8.65;5.47;;;;;;;;;;5009971;28;20368;-66
2023/03/10 00:50:55;;;;;;;8.50;5.85;;;;;;;;;;5012039;28;20040;-67
2023/03/10 00:53:22;;;;;;;6.28;5.15;;;;;;;;;;5010679;28;20038;-66
2023/03/10 00:56:01;;;;;;;14.40;7.32;;;;;;;;;;5012501;28;20099;-67
2023/03/10 00:58:28;;;;;;;7.17;5.63;;;;;;;;;;5012003;28;20044;-66
2023/03/10 01:00:55;;;;;;;12.07;6.63;;;;;;;;;;5009647;28;20034;-66
2023/03/10 01:03:22;;;;;;;14.63;6.95;;;;;;;;;;5006337;28;20033;-67
2023/03/10 01:05:49;;;;;;;9.07;6.07;;;;;;;;;;5010525;28;20022;-66
2023/03/10 01:08:17;;;;;;;6.93;5.90;;;;;;;;;;5010526;28;20026;-67
2023/03/10 01:10:44;;;;;;;16.23;7.60;;;;;;;;;;5007165;28;20473;-68
2023/03/10 01:13:11;;;;;;;10.10;6.80;;;;;;;;;;5010916;28;20037;-67
2023/03/10 01:15:39;;;;;;;10.53;6.73;;;;;;;;;;5009017;28;20029;-67
2023/03/10 01:18:06;;;;;;;13.77;6.13;;;;;;;;;;5009582;28;20095;-67
2023/03/10 01:20:33;;;;;;;12.07;7.33;;;;;;;;;;5004829;28;20159;-66
2023/03/10 01:23:00;;;;;;;15.60;8.07;;;;;;;;;;5013681;28;20029;-68
2023/03/10 01:25:27;;;;;;;15.83;7.10;;;;;;;;;;5001079;28;20574;-67
2023/03/10 01:27:54;;;;;;;26.27;7.87;;;;;;;;;;5001777;28;20097;-67
2023/03/10 01:30:20;;;;;;;10.07;7.53;;;;;;;;;;5002304;28;20034;-68
2023/03/10 01:32:47;;;;;;;12.33;7.03;;;;;;;;;;5006414;28;20037;-68
2023/03/10 01:35:14;;;;;;;16.67;7.80;;;;;;;;;;5015417;28;20025;-66
2023/03/10 01:37:41;;;;;;;12.03;6.23;;;;;;;;;;5006485;28;20034;-67
2023/03/10 01:40:08;;;;;;;15.77;7.40;;;;;;;;;;4999222;28;20033;-65
2023/03/10 01:42:35;;;;;;;12.50;6.43;;;;;;;;;;5006583;28;20037;-68
2023/03/10 01:45:09;;;;;;;8.33;6.60;;;;;;;;;;5006741;28;20397;-68
2023/03/10 01:47:35;;;;;;;;;;;;;;;;;;5010935;28;20500;-67
2023/03/10 01:50:04;;;;;;;8.20;6.07;;;;;;;;;;5009440;28;20275;-65
2023/03/10 01:52:31;;;;;;;13.30;7.10;;;;;;;;;;5010613;28;20026;-67
2023/03/10 01:55:02;;;;;;;11.93;7.53;;;;;;;;;;5011428;28;20022;-65
2023/03/10 01:57:35;;;;;;;13.40;8.13;;;;;;;;;;5015167;28;20053;-67
2023/03/10 02:00:02;;;;;;;13.27;8.23;;;;;;;;;;5015256;28;20038;-66
2023/03/10 02:02:31;;;;;;;9.87;7.47;;;;;;;;;;5015597;28;20548;-66
2023/03/10 02:04:58;;;;;;;13.87;7.00;;;;;;;;;;5015446;28;20030;-66
2023/03/10 02:07:26;;;;;;;11.50;7.93;;;;;;;;;;5013264;28;20106;-67
2023/03/10 02:09:55;;;;;;;14.93;7.60;;;;;;;;;;5010106;28;20095;-67
2023/03/10 02:12:21;;;;;;;11.70;7.30;;;;;;;;;;5010204;28;20029;-66
2023/03/10 02:14:49;;;;;;;10.73;8.40;;;;;;;;;;5010194;28;20109;-65
2023/03/10 02:17:17;;;;;;;9.57;7.77;;;;;;;;;;5008917;28;20438;-67
2023/03/10 02:19:55;;;;;;;11.63;7.17;;;;;;;;;;5013844;28;20498;-67
2023/03/10 02:22:22;;;;;;;13.67;9.23;;;;;;;;;;5012851;28;20083;-68
2023/03/10 02:25:00;;;;;;;16.73;8.23;;;;;;;;;;5009292;28;20033;-64
2023/03/10 02:27:36;;;;;;;10.43;7.43;;;;;;;;;;5007886;28;20034;-65
2023/03/10 02:30:06;;;;;;;13.77;8.27;;;;;;;;;;5012420;28;20034;-68
2023/03/10 02:32:34;;;;;;;18.97;8.00;;;;;;;;;;5009719;28;20038;-65
2023/03/10 02:35:01;;;;;;;15.90;9.67;;;;;;;;;;5009902;28;20503;-65
2023/03/10 02:37:29;;;;;;;13.67;8.53;;;;;;;;;;5009660;28;20109;-64
2023/03/10 02:39:56;;;;;;;12.67;8.30;;;;;;;;;;5001687;28;20037;-66
2023/03/10 02:42:27;;;;;;;19.53;8.30;;;;;;;;;;5006707;28;20101;-66
2023/03/10 02:44:54;;;;;;;14.83;9.50;;;;;;;;;;5013902;28;20085;-65
2023/03/10 02:47:21;;;;;;;10.37;8.50;;;;;;;;;;5013877;28;20033;-64
2023/03/10 02:49:48;;;;;;;14.00;9.33;;;;;;;;;;5014486;28;20448;-64
2023/03/10 02:52:26;;;;;;;15.23;8.07;;;;;;;;;;5012614;28;20076;-66
2023/03/10 02:54:53;;;;;;;14.03;9.03;;;;;;;;;;5008937;28;20033;-67
2023/03/10 02:57:20;;;;;;;12.13;8.80;;;;;;;;;;5009161;28;20023;-65
2023/03/10 02:59:46;;;;;;;11.67;9.83;;;;;;;;;;5009060;28;20041;-66
2023/03/10 03:02:13;;;;;;;17.93;8.20;;;;;;;;;;5010809;28;20029;-65
2023/03/10 03:04:40;;;;;;;10.87;8.80;;;;;;;;;;5013935;28;20034;-65
2023/03/10 03:07:06;;;;;;;10.80;9.40;;;;;;;;;;5014262;28;20037;-64
2023/03/10 03:09:34;;;;;;;13.27;9.67;;;;;;;;;;5013548;28;20018;-63
2023/03/10 03:12:00;;;;;;;11.03;9.20;;;;;;;;;;5011777;28;20053;-64
2023/03/10 03:14:27;;;;;;;13.57;9.70;;;;;;;;;;5011570;28;20022;-64
2023/03/10 03:16:54;;;;;;;24.30;11.07;;;;;;;;;;5008978;28;20026;-63
2023/03/10 03:19:20;;;;;;;14.37;9.70;;;;;;;;;;5008974;28;20088;-63
2023/03/10 03:21:48;;;;;;;12.10;9.23;;;;;;;;;;5008614;28;20030;-65
2023/03/10 03:24:16;;;;;;;13.67;9.90;;;;;;;;;;5010058;28;20018;-64
2023/03/10 03:26:43;;;;;;;19.07;8.70;;;;;;;;;;5013271;28;20029;-63
2023/03/10 03:29:10;;;;;;;13.83;10.10;;;;;;;;;;5013328;28;20472;-64
2023/03/10 03:31:37;;;;;;;13.10;9.30;;;;;;;;;;5013542;28;20105;-64
2023/03/10 03:34:05;;;;;;;13.33;9.37;;;;;;;;;;5013676;28;20443;-63
2023/03/10 03:36:31;;;;;;;13.60;8.83;;;;;;;;;;5012476;28;20026;-64
2023/03/10 03:38:58;;;;;;;11.53;9.90;;;;;;;;;;5008395;28;20049;-64
2023/03/10 03:41:32;;;;;;;19.90;10.40;;;;;;;;;;5007867;28;20374;-66
2023/03/10 03:44:04;;;;;;;14.70;11.17;;;;;;;;;;5008437;28;20060;-66
2023/03/10 03:46:41;;;;;;;11.47;9.37;;;;;;;;;;5009043;28;20460;-69
2023/03/10 03:49:14;;;;;;;14.20;10.87;;;;;;;;;;5013530;28;20465;-69
2023/03/10 03:51:44;;;;;;;11.90;9.93;;;;;;;;;;5011562;28;20084;-69
2023/03/10 03:54:17;;;;;;;18.93;9.33;;;;;;;;;;5013426;28;20029;-69
2023/03/10 03:56:47;;;;;;;17.37;10.80;;;;;;;;;;5012609;28;20029;-70
2023/03/10 03:59:21;;;;;;;14.03;9.50;;;;;;;;;;5011559;28;20395;-69
2023/03/10 04:01:50;;;;;;;25.88;10.82;;;;;;;;;;5007884;28;20053;-69
2023/03/10 04:04:19;;;;;;;13.40;9.60;;;;;;;;;;5008155;28;20024;-69
2023/03/10 04:06:50;;;;;;;14.73;10.57;;;;;;;;;;5008337;28;20026;-70
2023/03/10 04:09:29;;;;;;;17.33;10.30;;;;;;;;;;5009493;28;20025;-69
2023/03/10 04:11:57;;;;;;;13.27;10.17;;;;;;;;;;5011431;28;20425;-69
2023/03/10 04:14:24;;;;;;;15.57;10.53;;;;;;;;;;5012857;28;20037;-68
2023/03/10 04:16:51;;;;;;;14.10;9.97;;;;;;;;;;5013002;28;20100;-69
2023/03/10 04:19:18;;;;;;;17.53;10.50;;;;;;;;;;5012761;28;20045;-69
2023/03/10 04:21:44;;;;;;;14.53;10.97;;;;;;;;;;5010092;28;20029;-66
2023/03/10 04:24:11;;;;;;;17.20;13.00;;;;;;;;;;5007328;28;20480;-66
2023/03/10 04:26:38;;;;;;;12.30;9.60;;;;;;;;;;5007527;28;20022;-66
2023/03/10 04:29:04;;;;;;;17.37;10.43;;;;;;;;;;5007419;28;20046;-68
2023/03/10 04:31:31;;;;;;;14.93;10.27;;;;;;;;;;5007668;28;20030;-68
2023/03/10 04:33:58;;;;;;;16.87;10.37;;;;;;;;;;5012714;28;20137;-71
2023/03/10 04:36:27;;;;;;;14.43;10.70;;;;;;;;;;5012244;28;20045;-68
2023/03/10 04:38:53;;;;;;;14.67;12.17;;;;;;;;;;5011878;28;20042;-70
2023/03/10 04:41:20;;;;;;;16.77;10.60;;;;;;;;;;5011972;28;20385;-69
2023/03/10 04:43:47;;;;;;;13.90;10.40;;;;;;;;;;5009609;28;20022;-68
2023/03/10 04:46:13;;;;;;;14.23;9.87;;;;;;;;;;5004183;28;20037;-67
2023/03/10 04:48:40;;;;;;;14.60;11.40;;;;;;;;;;5003920;28;20022;-66
2023/03/10 04:51:08;;;;;;;12.90;9.03;;;;;;;;;;5006837;28;20092;-67
2023/03/10 04:53:35;;;;;;;10.80;8.97;;;;;;;;;;5008298;28;20052;-67
2023/03/10 04:56:04;;;;;;;12.63;8.90;;;;;;;;;;5012447;28;20049;-66
2023/03/10 04:58:31;;;;;;;13.13;10.10;;;;;;;;;;5009612;28;20038;-65
2023/03/10 05:00:58;;;;;;;17.33;11.80;;;;;;;;;;5011864;28;20479;-65
2023/03/10 05:03:25;;;;;;;15.00;10.17;;;;;;;;;;5011875;28;20084;-66
2023/03/10 05:05:52;;;;;;;17.53;12.00;;;;;;;;;;5011300;28;20026;-64
2023/03/10 05:08:19;;;;;;;12.27;9.83;;;;;;;;;;5007428;28;20054;-65
2023/03/10 05:10:46;;;;;;;11.93;8.63;;;;;;;;;;5007441;28;20439;-67
2023/03/10 05:13:13;;;;;;;10.70;8.37;;;;;;;;;;5007616;28;20040;-67
2023/03/10 05:15:40;;;;;;;15.53;6.43;;;;;;;;;;5007190;28;20026;-67
2023/03/10 05:18:07;;;;;;;8.10;6.93;;;;;;;;;;5012302;28;20038;-67
2023/03/10 05:20:34;;;;;;;10.60;7.57;;;;;;;;;;5011939;28;20070;-67
2023/03/10 05:23:00;;;;;;;8.17;5.13;;;;;;;;;;5012326;28;20022;-67
2023/03/10 05:25:27;;;;;;;11.10;4.97;;;;;;;;;;5012405;28;20022;-66
2023/03/10 05:27:54;;;;;;;9.07;6.37;;;;;;;;;;5011531;28;20536;-67
2023/03/10 05:30:20;;;;;;;7.30;6.20;;;;;;;;;;5007147;28;20061;-67
2023/03/10 05:32:47;;;;;;;6.23;5.03;;;;;;;;;;5006698;28;20061;-66
2023/03/10 05:35:14;;;;;;;10.67;7.43;;;;;;;;;;5007274;28;20037;-67
2023/03/10 05:37:42;;;;;;;11.57;8.23;;;;;;;;;;5006920;28;20099;-67
2023/03/10 05:40:10;;;;;;;9.53;7.77;;;;;;;;;;5010465;28;20034;-67
2023/03/10 05:42:37;;;;;;;9.27;7.53;;;;;;;;;;5012251;28;20029;-67
2023/03/10 05:45:04;;;;;;;11.50;7.63;;;;;;;;;;5012196;28;20030;-67
2023/03/10 05:47:32;;;;;;;12.80;6.57;;;;;;;;;;5012256;28;20038;-67
2023/03/10 05:49:59;;;;;;;7.00;5.43;;;;;;;;;;5011651;28;20030;-67
2023/03/10 05:52:26;;;;;;;9.07;7.33;;;;;;;;;;5010672;28;20061;-66
2023/03/10 05:54:53;;;;;;;9.00;6.80;;;;;;;;;;5010276;28;20026;-66
2023/03/10 05:57:20;;;;;;;10.00;6.43;;;;;;;;;;5009792;28;20535;-66
2023/03/10 05:59:46;;;;;;;11.73;7.33;;;;;;;;;;5009586;28;20112;-64
2023/03/10 06:02:13;;;;;;;12.57;8.50;;;;;;;;;;5014622;28;20025;-66
2023/03/10 06:04:40;;;;;;;12.80;8.47;;;;;;;;;;5015135;28;20120;-66
2023/03/10 06:07:06;;;;;;;8.17;6.00;;;;;;;;;;5014080;28;20491;-68
2023/03/10 06:09:33;;;;;;;10.17;6.83;;;;;;;;;;5015223;28;20026;-67
2023/03/10 06:12:00;;;;;;;10.97;7.60;;;;;;;;;;5014695;28;20076;-69
2023/03/10 06:14:27;;;;;;;12.17;7.97;;;;;;;;;;5010497;28;20034;-69
2023/03/10 06:16:54;;;;;;;9.43;6.50;;;;;;;;;;5010048;28;20053;-69
2023/03/10 06:19:21;;;;;;;8.33;6.97;;;;;;;;;;5009772;28;20042;-68
2023/03/10 06:21:49;;;;;;;10.63;6.67;;;;;;;;;;5009678;28;20022;-68
2023/03/10 06:24:16;;;;;;;11.73;8.23;;;;;;;;;;5013204;28;20468;-68
2023/03/10 06:26:42;;;;;;;10.67;8.07;;;;;;;;;;5014912;28;20022;-68
2023/03/10 06:29:09;;;;;;;13.47;9.27;;;;;;;;;;5014740;28;20025;-68
2023/03/10 06:31:36;;;;;;;16.87;8.50;;;;;;;;;;5014750;28;20022;-68
2023/03/10 06:34:02;;;;;;;14.53;8.33;;;;;;;;;;5014601;28;20432;-68
2023/03/10 06:36:32;;;;;;;10.47;7.63;;;;;;;;;;5010702;28;20022;-69
2023/03/10 06:38:59;;;;;;;10.17;7.70;;;;;;;;;;5009499;28;20034;-69
2023/03/10 06:41:26;;;;;;;10.30;8.07;;;;;;;;;;5009223;28;20026;-69
2023/03/10 06:43:53;;;;;;;8.93;6.40;;;;;;;;;;5009395;28;20018;-69
2023/03/10 06:46:20;;;;;;;8.07;6.60;;;;;;;;;;5012644;28;20061;-69
2023/03/10 06:48:47;;;;;;;9.90;7.27;;;;;;;;;;5014486;28;20026;-69
2023/03/10 06:51:15;;;;;;;13.87;6.37;;;;;;;;;;5013172;28;20121;-68
2023/03/10 06:53:42;;;;;;;10.77;8.00;;;;;;;;;;5014280;28;20018;-67
2023/03/10 06:56:12;;;;;;;16.23;9.67;;;;;;;;;;5014354;28;20018;-69
2023/03/10 06:58:39;;;;;;;11.73;9.30;;;;;;;;;;5008899;28;20116;-69
2023/03/10 07:01:06;;;;;;;13.63;8.60;;;;;;;;;;5009207;28;20605;-69
2023/03/10 07:03:34;;;;;;;8.10;6.33;;;;;;;;;;5008428;28;20048;-69
2023/03/10 07:06:01;;;;;;;11.40;7.03;;;;;;;;;;5009018;28;20054;-68
2023/03/10 07:08:28;;;;;;;14.40;7.67;;;;;;;;;;5011972;28;20038;-69
2023/03/10 07:10:55;;;;;;;14.27;7.03;;;;;;;;;;5013668;28;20026;-69
2023/03/10 07:13:22;;;;;;;8.43;6.57;;;;;;;;;;5013471;28;20026;-70
2023/03/10 07:15:49;;;;;;;9.83;7.67;;;;;;;;;;5014115;28;20034;-69
2023/03/10 07:18:16;;;;;;;13.63;9.73;;;;;;;;;;5012678;28;20045;-69
2023/03/10 07:20:46;;;;;;;8.80;7.03;;;;;;;;;;5010601;28;20037;-69
2023/03/10 07:23:14;;;;;;;10.53;7.03;;;;;;;;;;5008525;28;20026;-69
2023/03/10 07:25:41;;;;;;;9.83;7.63;;;;;;;;;;5008391;28;20472;-69
2023/03/10 07:28:08;;;;;;;9.57;6.73;;;;;;;;;;5008701;28;20030;-69
2023/03/10 07:30:35;;;;;;;7.00;5.50;;;;;;;;;;5010869;28;20025;-69
2023/03/10 07:33:02;;;;;;;23.73;7.00;;;;;;;;;;5012269;28;20041;-69
2023/03/10 07:35:28;;;;;;;7.17;5.47;;;;;;;;;;5013406;28;20223;-69
2023/03/10 07:37:55;;;;;;;10.53;7.10;;;;;;;;;;5013367;28;20044;-69
2023/03/10 07:40:23;;;;;;;8.53;6.23;;;;;;;;;;5013499;28;20029;-69
2023/03/10 07:42:53;;;;;;;8.90;6.20;;;;;;;;;;5009628;28;20398;-69
2023/03/10 07:45:20;;;;;;;10.50;6.93;;;;;;;;;;5008175;28;20465;-69
2023/03/10 07:47:47;;;;;;;14.90;9.63;;;;;;;;;;5008273;28;20048;-68
2023/03/10 07:50:14;;;;;;;8.60;7.37;;;;;;;;;;5008296;28;20022;-68
2023/03/10 07:52:40;;;;;;;6.73;6.00;;;;;;;;;;5010309;28;20018;-68
2023/03/10 07:55:07;;;;;;;6.17;5.33;;;;;;;;;;5013130;28;20049;-68
2023/03/10 07:57:34;;;;;;;6.57;4.73;;;;;;;;;;5012966;28;20068;-68
2023/03/10 08:00:01;;;;;;;7.33;5.37;;;;;;;;;;5013210;28;20022;-69
2023/03/10 08:02:28;;;;;;;11.10;8.17;;;;;;;;;;5013163;28;20030;-69
2023/03/10 08:04:54;;;;;;;11.73;8.80;;;;;;;;;;5010280;28;20095;-70
2023/03/10 08:07:21;;;;;;;9.03;7.20;;;;;;;;;;5008207;28;20052;-69
2023/03/10 08:09:54;;;;;;;10.20;6.67;;;;;;;;;;5007957;28;20516;-69
2023/03/10 08:12:21;;;;;;;9.60;6.80;;;;;;;;;;5007750;28;20041;-69
2023/03/10 08:14:49;;;;;;;9.37;6.37;;;;;;;;;;5008871;28;20032;-67
2023/03/10 08:17:16;;;;;;;17.27;10.47;;;;;;;;;;5012930;28;20060;-69
2023/03/10 08:19:43;;;;;;;13.87;8.77;;;;;;;;;;5012489;28;20073;-69
2023/03/10 08:22:10;;;;;;;9.50;7.40;;;;;;;;;;5012532;28;20033;-69
2023/03/10 08:24:37;;;;;;;7.97;6.47;;;;;;;;;;5012766;28;20540;-69
2023/03/10 08:27:04;;;;;;;14.97;8.20;;;;;;;;;;5010717;28;20026;-68
2023/03/10 08:29:31;;;;;;;5.83;4.97;;;;;;;;;;5007470;28;20029;-68
2023/03/10 08:31:58;;;;;;;10.80;7.10;;;;;;;;;;5005991;28;20176;-69
2023/03/10 08:34:24;;;;;;;19.40;10.20;;;;;;;;;;5007460;28;20477;-69
2023/03/10 08:36:51;;;;;;;15.27;7.57;;;;;;;;;;5008583;28;20029;-69
2023/03/10 08:39:18;;;;;;;9.23;7.30;;;;;;;;;;5012188;28;20044;-67
2023/03/10 08:41:47;;;;;;;7.27;6.57;;;;;;;;;;5012595;28;20029;-69
2023/03/10 08:44:16;;;;;;;11.20;8.00;;;;;;;;;;5012681;28;20026;-68
2023/03/10 08:46:44;;;;;;;12.27;8.07;;;;;;;;;;5012408;28;20018;-68
2023/03/10 08:49:10;;;;;;;11.77;7.90;;;;;;;;;;5010621;28;20388;-69
2023/03/10 08:51:38;;;;;;;8.73;7.73;;;;;;;;;;5005898;28;20484;-68
2023/03/10 08:54:04;;;;;;;10.03;7.63;;;;;;;;;;5007084;28;20044;-69
2023/03/10 08:56:31;;;;;;;8.27;6.63;;;;;;;;;;5007453;28;20357;-68
2023/03/10 08:58:59;;;;;;;11.13;7.30;;;;;;;;;;5008027;28;20049;-69
2023/03/10 09:01:27;;;;;;;11.33;9.10;;;;;;;;;;5012288;28;20026;-69
2023/03/10 09:03:53;;;;;;;12.87;9.17;;;;;;;;;;5012308;28;20048;-69
2023/03/10 09:06:20;;;;;;;11.87;9.30;;;;;;;;;;5012494;28;20058;-68
2023/03/10 09:08:49;;;;;;;7.63;6.67;;;;;;;;;;5012029;28;20105;-69
2023/03/10 09:11:17;;;;;;;18.80;8.93;;;;;;;;;;5010747;28;20028;-69
2023/03/10 09:13:44;;;;;;;12.47;7.63;;;;;;;;;;5007331;28;20105;-69
2023/03/10 09:16:12;;;;;;;8.27;6.63;;;;;;;;;;5007236;28;20041;-69
2023/03/10 09:18:40;;;;;;;15.60;9.07;;;;;;;;;;5005739;28;20040;-69
2023/03/10 09:21:07;;;;;;;11.67;9.37;;;;;;;;;;5007488;28;20026;-68
2023/03/10 09:23:34;;;;;;;15.00;9.10;;;;;;;;;;5012271;28;20421;-69
2023/03/10 09:26:01;;;;;;;10.27;7.60;;;;;;;;;;5014330;28;20022;-69
2023/03/10 09:28:28;;;;;;;9.30;7.13;;;;;;;;;;5014349;28;20039;-68
2023/03/10 09:30:54;;;;;;;9.23;6.23;;;;;;;;;;5016085;28;20733;-68
2023/03/10 09:33:22;;;;;;;8.40;7.37;;;;;;;;;;5014741;28;20088;-69
2023/03/10 09:35:50;;;;;;;11.43;8.80;;;;;;;;;;5010682;28;20045;-69
2023/03/10 09:38:16;;;;;;;11.07;7.23;;;;;;;;;;5010680;28;20034;-69
2023/03/10 09:40:49;;;;;;;11.43;7.97;;;;;;;;;;5010543;28;20049;-69
2023/03/10 09:43:18;;;;;;;10.43;7.77;;;;;;;;;;5008935;28;20037;-69
2023/03/10 09:45:54;;;;;;;17.17;8.50;;;;;;;;;;5015830;28;20108;-69
2023/03/10 09:48:34;;;;;;;9.70;7.20;;;;;;;;;;5015757;28;20104;-68
2023/03/10 09:51:04;;;;;;;9.67;7.60;;;;;;;;;;5015494;28;20376;-68
2023/03/10 09:53:49;;;;;;;15.27;8.77;;;;;;;;;;5014885;28;20026;-68
2023/03/10 09:56:17;;;;;;;6.43;5.45;;;;;;;;;;5013286;28;20034;-68
2023/03/10 09:58:44;;;;;;;7.77;5.50;;;;;;;;;;5010486;28;20045;-68
2023/03/10 10:01:16;;;;;;;9.83;7.83;;;;;;;;;;5010177;28;20476;-69
2023/03/10 10:03:44;;;;;;;13.47;8.57;;;;;;;;;;5010221;28;20391;-68
2023/03/10 10:06:18;;;;;;;31.60;9.93;;;;;;;;;;5010036;28;20030;-69
2023/03/10 10:08:46;;;;;;;15.47;10.57;;;;;;;;;;5015401;28;20109;-68
2023/03/10 10:11:15;;;;;;;18.47;11.23;;;;;;;;;;5015254;28;20026;-68
2023/03/10 10:13:42;;;;;;;15.37;10.67;;;;;;;;;;5013930;28;20350;-68
2023/03/10 10:16:18;;;;;;;11.70;8.40;;;;;;;;;;5014978;28;20112;-69
2023/03/10 10:18:48;;;;;;;14.33;9.30;;;;;;;;;;5012409;28;20037;-68
2023/03/10 10:21:25;;;;;;;14.73;9.80;;;;;;;;;;5009970;28;20439;-68
2023/03/10 10:23:53;;;;;;;14.67;10.23;;;;;;;;;;5009765;28;20071;-68
2023/03/10 10:26:26;;;;;;;24.33;9.17;;;;;;;;;;5009737;28;20125;-68
2023/03/10 10:28:53;;;;;;;14.67;10.63;;;;;;;;;;5011600;28;20358;-69
2023/03/10 10:31:22;;;;;;;10.73;7.97;;;;;;;;;;5014793;28;20380;-68
2023/03/10 10:33:52;;;;;;;12.10;9.03;;;;;;;;;;5014619;28;20046;-69
2023/03/10 10:36:19;;;;;;;12.67;8.50;;;;;;;;;;5014416;28;20030;-69
2023/03/10 10:38:50;;;;;;;34.80;10.00;;;;;;;;;;5013998;28;20451;-68
2023/03/10 10:41:20;;;;;;;8.43;6.53;;;;;;;;;;5011747;28;20033;-69
2023/03/10 10:43:48;;;;;;;9.83;5.93;;;;;;;;;;5009019;28;20026;-68
2023/03/10 10:46:16;;;;;;;29.53;10.63;;;;;;;;;;5009354;28;20420;-68
2023/03/10 10:48:44;;;;;;;10.67;9.10;;;;;;;;;;5009521;28;20024;-68
2023/03/10 10:51:31;;;;;;;11.93;9.33;;;;;;;;;;5011666;28;20468;-68
2023/03/10 10:53:59;;;;;;;8.27;7.27;;;;;;;;;;5014321;28;20044;-68
2023/03/10 10:56:29;;;;;;;8.90;7.00;;;;;;;;;;5014406;28;20022;-68
2023/03/10 10:59:15;;;;;;;12.20;8.10;;;;;;;;;;5014327;28;20041;-68
2023/03/10 11:01:58;;;;;;;7.70;6.82;;;;;;;;;;5014290;28;20014;-68
2023/03/10 11:04:26;;;;;;;12.37;8.77;;;;;;;;;;5009077;28;20381;-68
2023/03/10 11:06:53;;;;;;;10.57;8.83;;;;;;;;;;5009013;28;20444;-68
2023/03/10 11:09:21;;;;;;;10.40;9.03;;;;;;;;;;5007800;28;20069;-68
2023/03/10 11:12:03;;;;;;;9.83;8.07;;;;;;;;;;5008651;28;20376;-68
2023/03/10 11:14:39;;;;;;;11.80;8.90;;;;;;;;;;5013614;28;20101;-68
2023/03/10 11:17:24;;;;;;;18.77;11.03;;;;;;;;;;5012590;28;20484;-68
2023/03/10 11:19:51;;;;;;;;;;;;;;;;;;5014405;28;20116;-68
2023/03/10 11:22:37;;;;;;;14.37;9.97;;;;;;;;;;5013585;28;19917;-68
2023/03/10 11:25:03;;;;;;;16.07;11.90;;;;;;;;;;5012464;28;20028;-68
2023/03/10 11:27:41;;;;;;;14.67;9.57;;;;;;;;;;5008649;28;20042;-68
2023/03/10 11:30:14;;;;;;;9.20;7.43;;;;;;;;;;5008733;28;20092;-68
2023/03/10 11:32:59;;;;;;;14.43;9.40;;;;;;;;;;5008336;28;20026;-68
2023/03/10 11:35:45;;;;;;;13.48;9.32;;;;;;;;;;4989527;28;20034;-68
2023/03/10 11:38:30;;;;;;;8.57;6.50;;;;;;;;;;4993759;28;20540;-68
2023/03/10 11:40:58;;;;;;;9.38;7.50;;;;;;;;;;4994046;28;20347;-68
2023/03/10 11:43:32;;;;;;;15.27;8.03;;;;;;;;;;4993943;28;20084;-68
2023/03/10 11:46:02;;;;;;;12.80;9.77;;;;;;;;;;5002722;28;20030;-68
2023/03/10 11:48:37;;;;;;;11.50;7.90;;;;;;;;;;5009379;28;20025;-68
2023/03/10 11:51:05;;;;;;;7.83;6.53;;;;;;;;;;5008046;28;20022;-68
2023/03/10 11:53:50;;;;;;;10.53;6.87;;;;;;;;;;5008202;28;20021;-68
2023/03/10 11:56:18;;;;;;;11.68;9.82;;;;;;;;;;5008077;28;20037;-68
2023/03/10 11:58:56;;;;;;;8.53;7.63;;;;;;;;;;5011856;28;20046;-68
2023/03/10 12:01:49;;;;;;;14.90;7.23;;;;;;;;;;5012737;28;20152;-69
2023/03/10 12:04:20;;;;;;;24.13;11.93;;;;;;;;;;5011301;28;20034;-68
2023/03/10 12:07:06;;;;;;;14.20;7.83;;;;;;;;;;5013184;28;20025;-68
2023/03/10 12:09:39;;;;;;;10.37;7.27;;;;;;;;;;5011554;28;20420;-67
2023/03/10 12:12:06;;;;;;;9.40;7.77;;;;;;;;;;5007650;28;20377;-68
2023/03/10 12:14:34;;;;;;;24.77;11.67;;;;;;;;;;5007906;28;20026;-68
2023/03/10 12:17:01;;;;;;;20.17;10.13;;;;;;;;;;5007781;28;20022;-68
2023/03/10 12:19:28;;;;;;;15.03;10.13;;;;;;;;;;5008373;28;20030;-69
2023/03/10 12:22:13;;;;;;;20.47;12.33;;;;;;;;;;5012167;28;20392;-68
2023/03/10 12:24:46;;;;;;;23.25;12.45;;;;;;;;;;5013045;28;20022;-68
2023/03/10 12:27:13;;;;;;;23.13;14.23;;;;;;;;;;5013041;28;20022;-68
2023/03/10 12:29:41;;;;;;;21.97;13.43;;;;;;;;;;5012535;28;20030;-68
2023/03/10 12:32:26;;;;;;;22.60;13.47;;;;;;;;;;5010690;28;20025;-68
2023/03/10 12:35:13;;;;;;;16.30;11.00;;;;;;;;;;5007205;28;20038;-68
2023/03/10 12:37:40;;;;;;;30.33;11.03;;;;;;;;;;4976102;28;20506;-68
2023/03/10 12:40:26;;;;;;;15.07;11.60;;;;;;;;;;5007308;28;20034;-68
2023/03/10 12:42:53;;;;;;;16.43;10.97;;;;;;;;;;5010483;28;20349;-68
2023/03/10 12:45:20;;;;;;;13.83;11.10;;;;;;;;;;5012241;28;20060;-68
2023/03/10 12:47:55;;;;;;;13.20;9.23;;;;;;;;;;5012570;28;20025;-68
2023/03/10 12:50:40;;;;;;;13.87;11.60;;;;;;;;;;5012498;28;20550;-67
2023/03/10 12:53:19;;;;;;;10.77;8.68;;;;;;;;;;5012409;28;20030;-68
2023/03/10 12:56:05;;;;;;;16.07;10.00;;;;;;;;;;5007526;28;20033;-68
2023/03/10 12:58:32;;;;;;;14.43;8.87;;;;;;;;;;5006719;28;20045;-68
2023/03/10 13:01:01;;;;;;;9.30;8.10;;;;;;;;;;5009627;28;20030;-69
2023/03/10 13:03:40;;;;;;;16.10;12.97;;;;;;;;;;5011238;28;20033;-68
2023/03/10 13:06:13;;;;;;;13.13;10.37;;;;;;;;;;5016374;28;20014;-69
2023/03/10 13:08:39;;;;;;;14.87;10.17;;;;;;;;;;5016080;28;20493;-68
2023/03/10 13:11:18;;;;;;;13.40;10.30;;;;;;;;;;5016022;28;20121;-68
2023/03/10 13:13:47;;;;;;;12.97;11.03;;;;;;;;;;5016222;28;20028;-67
2023/03/10 13:16:18;;;;;;;58.47;13.23;;;;;;;;;;5015091;28;20018;-68
2023/03/10 13:18:48;;;;;;;13.93;8.10;;;;;;;;;;5010701;28;20034;-68
2023/03/10 13:21:26;;;;;;;16.43;9.87;;;;;;;;;;5010383;28;20032;-68
2023/03/10 13:23:53;;;;;;;22.73;13.23;;;;;;;;;;5010988;28;20033;-69
2023/03/10 13:26:20;;;;;;;11.67;9.80;;;;;;;;;;5010389;28;20018;-68
2023/03/10 13:28:52;;;;;;;25.57;12.30;;;;;;;;;;5016092;28;20524;-68
2023/03/10 13:31:20;;;;;;;16.17;12.30;;;;;;;;;;5015492;28;20022;-66
2023/03/10 13:33:48;;;;;;;24.10;14.57;;;;;;;;;;5015474;28;20062;-66
2023/03/10 13:36:21;;;;;;;37.27;14.73;;;;;;;;;;5015494;28;20487;-66
2023/03/10 13:38:48;;;;;;;26.17;13.10;;;;;;;;;;4994135;28;20481;-67
2023/03/10 13:41:15;;;;;;;22.83;13.20;;;;;;;;;;4990956;28;20535;-67
2023/03/10 13:43:43;;;;;;;14.10;11.67;;;;;;;;;;4991109;28;20079;-66
2023/03/10 13:46:21;;;;;;;11.43;9.57;;;;;;;;;;4990987;28;20583;-66
2023/03/10 13:48:48;;;;;;;23.43;14.97;;;;;;;;;;5003611;28;20025;-67
2023/03/10 13:51:18;;;;;;;29.67;13.30;;;;;;;;;;5015268;28;20053;-66
2023/03/10 13:53:46;;;;;;;19.87;10.03;;;;;;;;;;4995830;28;20030;-67
2023/03/10 13:56:20;;;;;;;16.40;11.53;;;;;;;;;;4995625;28;20113;-67
2023/03/10 13:58:48;;;;;;;13.95;11.55;;;;;;;;;;5002924;28;20121;-67
2023/03/10 14:01:17;;;;;;;13.73;11.53;;;;;;;;;;5013098;28;20022;-67
2023/03/10 14:03:54;;;;;;;17.90;12.33;;;;;;;;;;5010058;28;20455;-67
2023/03/10 14:06:21;;;;;;;24.60;15.33;;;;;;;;;;5009989;28;20070;-67
2023/03/10 14:08:49;;;;;;;15.57;12.27;;;;;;;;;;5009821;28;20022;-67
2023/03/10 14:11:22;;;;;;;17.37;11.17;;;;;;;;;;5010898;28;20021;-67
2023/03/10 14:13:48;;;;;;;16.97;13.03;;;;;;;;;;5014722;28;20061;-67
2023/03/10 14:16:15;;;;;;;11.93;9.60;;;;;;;;;;5014686;28;20096;-67
2023/03/10 14:18:42;;;;;;;16.90;12.47;;;;;;;;;;5014902;28;20041;-67
2023/03/10 14:21:24;;;;;;;19.57;14.83;;;;;;;;;;5015087;28;20101;-67
2023/03/10 14:23:52;;;;;;;12.97;10.20;;;;;;;;;;5012300;28;20621;-67
2023/03/10 14:26:19;;;;;;;19.13;15.03;;;;;;;;;;5009406;28;20507;-67
2023/03/10 14:28:45;;;;;;;21.83;12.43;;;;;;;;;;5009547;28;20088;-68
2023/03/10 14:31:22;;;;;;;25.70;16.47;;;;;;;;;;5009752;28;20026;-69
2023/03/10 14:33:51;;;;;;;15.93;13.87;;;;;;;;;;5011951;28;20045;-68
2023/03/10 14:36:18;;;;;;;20.57;13.90;;;;;;;;;;5014721;28;20029;-69
2023/03/10 14:38:45;;;;;;;19.63;12.90;;;;;;;;;;5013906;28;20042;-68
2023/03/10 14:41:14;;;;;;;18.53;12.13;;;;;;;;;;5014582;28;20022;-69
2023/03/10 14:43:44;;;;;;;20.33;12.90;;;;;;;;;;5014624;28;20022;-67